createdAt,value
2022-11-10T00:03:36.673Z,1.27
2022-11-10T00:08:58.353Z,2.05
2022-11-10T00:14:38.861Z,2.00
2022-11-10T00:20:00.963Z,2.20
2022-11-10T00:25:23.421Z,4.82
2022-11-10T00:30:46.929Z,2.47
2022-11-10T00:36:09.179Z,1.60
2022-11-10T00:41:30.899Z,1.00
2022-11-10T00:46:52.561Z,1.67
2022-11-10T00:52:14.277Z,2.55
2022-11-10T00:57:35.915Z,2.78
2022-11-10T01:02:57.661Z,3.08
2022-11-10T01:08:19.329Z,2.17
2022-11-10T01:13:41.723Z,4.63
2022-11-10T01:19:05.144Z,3.50
2022-11-10T01:24:27.495Z,4.38
2022-11-10T01:29:49.157Z,1.95
2022-11-10T01:35:10.878Z,1.95
2022-11-10T01:40:32.612Z,0.85
2022-11-10T01:46:01.238Z,1.85
2022-11-10T01:51:41.510Z,2.67
2022-11-10T01:57:07.124Z,1.95
2022-11-10T02:08:00.570Z,1.45
2022-11-10T02:13:22.668Z,1.95
2022-11-10T02:18:44.701Z,2.00
2022-11-10T02:24:06.478Z,2.22
2022-11-10T02:29:28.137Z,1.85
2022-11-10T02:34:49.870Z,2.65
2022-11-10T02:40:11.913Z,2.17
2022-11-10T02:45:33.692Z,2.45
2022-11-10T02:50:55.337Z,0.98
2022-11-10T02:56:17.229Z,1.15
2022-11-10T03:01:39.241Z,2.28
2022-11-10T03:07:01.015Z,1.45
2022-11-10T03:12:22.774Z,1.13
2022-11-10T03:17:44.433Z,0.90
2022-11-10T03:23:06.203Z,1.65
2022-11-10T03:28:27.869Z,1.65
2022-11-10T03:33:49.578Z,1.90
2022-11-10T03:39:11.219Z,2.45
2022-11-10T03:44:32.887Z,0.88
2022-11-10T03:49:54.523Z,0.88
2022-11-10T03:55:18.858Z,2.00
2022-11-10T04:00:40.551Z,2.55
2022-11-10T04:06:20.604Z,3.72
2022-11-10T04:12:00.686Z,1.35
2022-11-10T04:17:22.315Z,1.15
2022-11-10T04:23:02.265Z,1.70
2022-11-10T04:28:23.960Z,1.42
2022-11-10T04:33:46.267Z,1.98
2022-11-10T04:39:08.905Z,1.98
2022-11-10T04:44:30.574Z,1.75
2022-11-10T04:49:52.208Z,2.20
2022-11-10T04:55:13.970Z,0.93
2022-11-10T05:00:36.815Z,1.40
2022-11-10T05:05:58.553Z,1.52
2022-11-10T05:11:20.287Z,1.30
2022-11-10T05:16:41.970Z,1.65
2022-11-10T05:22:03.731Z,1.02
2022-11-10T05:27:25.404Z,2.70
2022-11-10T05:32:47.077Z,1.77
2022-11-10T05:38:08.737Z,1.40
2022-11-10T05:43:30.430Z,0.90
2022-11-10T05:48:52.285Z,1.20
2022-11-10T05:54:13.921Z,1.52
2022-11-10T05:59:35.580Z,1.88
2022-11-10T06:04:57.237Z,1.15
2022-11-10T06:10:19.435Z,1.08
2022-11-10T06:15:42.969Z,0.85
2022-11-10T06:21:08.279Z,1.02
2022-11-10T06:26:30.027Z,1.30
2022-11-10T06:31:51.680Z,1.35
2022-11-10T06:37:13.365Z,2.15
2022-11-10T06:42:36.030Z,2.65
2022-11-10T06:48:15.682Z,2.53
2022-11-10T06:53:37.340Z,1.88
2022-11-10T06:58:59.065Z,7.43
2022-11-10T07:04:21.170Z,1.65
2022-11-10T07:09:43.011Z,1.90
2022-11-10T07:15:05.746Z,2.60
2022-11-10T07:20:28.627Z,4.68
2022-11-10T07:25:50.442Z,4.70
2022-11-10T07:31:12.129Z,1.80
2022-11-10T07:36:33.918Z,1.73
2022-11-10T07:41:55.684Z,4.45
2022-11-10T07:47:17.325Z,2.13
2022-11-10T07:52:39.143Z,4.00
2022-11-10T07:58:01.032Z,7.50
2022-11-10T08:03:23.120Z,6.60
2022-11-10T08:08:47.957Z,2.42
2022-11-10T08:14:09.623Z,5.85
2022-11-10T08:19:31.355Z,2.50
2022-11-10T08:24:53.024Z,2.03
2022-11-10T08:30:14.956Z,4.57
2022-11-10T08:35:39.682Z,5.72
2022-11-10T08:41:01.319Z,3.90
2022-11-10T08:46:22.953Z,4.28
2022-11-10T08:51:44.608Z,2.75
2022-11-10T08:57:06.330Z,2.88
2022-11-10T09:02:28.063Z,3.67
2022-11-10T09:07:51.247Z,1.67
2022-11-10T09:13:15.158Z,3.28
2022-11-10T09:18:36.830Z,0.90
2022-11-10T09:23:58.577Z,3.08
2022-11-10T09:29:20.432Z,3.65
2022-11-10T09:34:44.168Z,5.47
2022-11-10T09:40:17.780Z,4.95
2022-11-10T09:45:44.007Z,5.18
2022-11-10T09:51:19.773Z,6.68
2022-11-10T09:56:41.873Z,2.78
2022-11-10T10:02:40.349Z,5.38
2022-11-10T10:08:06.751Z,6.97
2022-11-10T10:13:37.278Z,7.22
2022-11-10T10:19:17.430Z,6.60
2022-11-10T10:24:39.973Z,5.82
2022-11-10T10:30:06.224Z,3.60
2022-11-10T10:35:28.636Z,5.10
2022-11-10T10:40:52.873Z,5.85
2022-11-10T10:46:16.125Z,5.68
2022-11-10T10:51:37.781Z,1.55
2022-11-10T10:57:05.229Z,4.35
2022-11-10T11:02:35.140Z,5.80
2022-11-10T11:08:04.887Z,4.05
2022-11-10T11:13:28.119Z,4.85
2022-11-10T11:18:50.832Z,5.63
2022-11-10T11:24:41.592Z,2.10
2022-11-10T11:30:17.607Z,4.18
2022-11-10T11:35:50.574Z,2.08
2022-11-10T11:41:12.206Z,4.25
2022-11-10T11:46:49.337Z,3.78
2022-11-10T11:52:22.376Z,2.53
2022-11-10T11:57:53.575Z,3.35
2022-11-10T12:03:44.352Z,2.45
2022-11-10T12:09:22.546Z,3.85
2022-11-10T12:15:20.010Z,3.08
2022-11-10T12:20:44.681Z,2.17
2022-11-10T12:26:29.359Z,3.10
2022-11-10T12:31:55.275Z,2.20
2022-11-10T12:37:28.451Z,4.65
2022-11-10T12:42:59.811Z,3.13
2022-11-10T12:48:22.923Z,2.65
2022-11-10T12:53:47.065Z,1.80
2022-11-10T12:59:20.705Z,6.32
2022-11-10T13:04:42.564Z,1.58
2022-11-10T13:10:19.281Z,2.25
2022-11-10T13:15:47.446Z,2.30
2022-11-10T13:21:09.191Z,2.28
2022-11-10T13:26:39.859Z,2.13
2022-11-10T13:32:07.495Z,1.45
2022-11-10T13:37:35.019Z,3.33
2022-11-10T13:42:59.453Z,3.55
2022-11-10T13:48:28.871Z,3.10
2022-11-10T13:54:11.637Z,2.60
2022-11-10T13:59:45.375Z,2.13
2022-11-10T14:05:09.605Z,1.13
2022-11-10T14:10:56.187Z,0.85
2022-11-10T14:16:23.360Z,3.53
2022-11-10T14:21:59.460Z,1.52
2022-11-10T14:27:27.628Z,2.05
2022-11-10T14:33:06.993Z,1.55
2022-11-10T14:38:34.038Z,2.20
2022-11-10T14:44:12.948Z,1.70
2022-11-10T14:49:34.701Z,1.60
2022-11-10T14:54:56.606Z,2.33
2022-11-10T15:00:25.257Z,1.05
2022-11-10T15:05:48.480Z,1.75
2022-11-10T15:11:40.610Z,2.08
2022-11-10T15:17:04.195Z,2.13
2022-11-10T15:22:35.739Z,1.52
2022-11-10T15:28:04.351Z,1.80
2022-11-10T15:33:30.100Z,0.77
2022-11-10T15:39:28.253Z,0.50
2022-11-10T15:44:50.010Z,0.80
2022-11-10T15:50:12.568Z,0.93
2022-11-10T15:55:35.634Z,1.63
2022-11-10T16:00:57.321Z,1.38
2022-11-10T16:06:19.060Z,0.40
2022-11-10T16:11:44.756Z,1.75
2022-11-10T16:17:09.159Z,1.33
2022-11-10T16:22:30.824Z,1.98
2022-11-10T16:27:52.568Z,1.95
2022-11-10T16:33:16.605Z,0.73
2022-11-10T16:38:38.322Z,1.02
2022-11-10T16:44:00.023Z,2.00
2022-11-10T16:49:35.782Z,2.55
2022-11-10T16:54:57.437Z,4.00
2022-11-10T17:00:19.862Z,2.55
2022-11-10T17:05:41.771Z,2.60
2022-11-10T17:11:03.474Z,3.60
2022-11-10T17:16:38.936Z,4.28
2022-11-10T17:22:00.626Z,5.60
2022-11-10T17:27:22.360Z,7.25
2022-11-10T17:33:04.086Z,16.50
2022-11-10T17:38:28.384Z,12.57
2022-11-10T17:43:50.097Z,14.55
2022-11-10T17:49:11.916Z,23.90
2022-11-10T17:54:34.051Z,15.07
2022-11-10T17:59:56.148Z,20.45
2022-11-10T18:05:18.789Z,20.55
2022-11-10T18:10:47.802Z,12.93
2022-11-10T18:16:11.933Z,15.13
2022-11-10T18:21:33.600Z,11.10
2022-11-10T18:26:55.339Z,9.98
2022-11-10T18:32:16.978Z,11.82
2022-11-10T18:37:39.378Z,9.68
2022-11-10T18:43:06.116Z,11.25
2022-11-10T18:48:32.147Z,8.80
2022-11-10T18:53:58.617Z,10.45
2022-11-10T18:59:20.386Z,7.80
2022-11-10T19:04:42.097Z,12.68
2022-11-10T19:10:04.253Z,15.93
2022-11-10T19:15:26.017Z,16.27
2022-11-10T19:20:47.667Z,10.50
2022-11-10T19:26:10.836Z,11.30
2022-11-10T19:31:32.546Z,17.25
2022-11-10T19:36:54.512Z,7.97
2022-11-10T19:42:16.262Z,15.18
2022-11-10T19:47:37.974Z,7.70
2022-11-10T19:52:59.730Z,6.05
2022-11-10T19:58:21.458Z,9.90
2022-11-10T20:03:43.652Z,7.50
2022-11-10T20:09:05.764Z,13.02
2022-11-10T20:14:28.001Z,9.38
2022-11-10T20:19:49.718Z,15.07
2022-11-10T20:25:11.440Z,11.25
2022-11-10T20:30:35.076Z,18.02
2022-11-10T20:36:02.773Z,12.27
2022-11-10T20:41:27.368Z,9.98
2022-11-10T20:46:54.555Z,12.43
2022-11-10T20:52:17.023Z,11.77
2022-11-10T20:57:38.696Z,18.85
2022-11-10T21:03:00.328Z,13.10
2022-11-10T21:08:22.370Z,6.85
2022-11-10T21:13:44.009Z,8.52
2022-11-10T21:19:06.519Z,11.02
2022-11-10T21:24:29.287Z,10.18
2022-11-10T21:29:50.984Z,7.65
2022-11-10T21:35:12.629Z,21.15
2022-11-10T21:40:34.421Z,12.60
2022-11-10T21:45:57.666Z,24.23
2022-11-10T21:51:22.359Z,16.80
2022-11-10T21:56:44.035Z,13.27
2022-11-10T22:02:06.620Z,13.55
2022-11-10T22:07:28.381Z,11.77
2022-11-10T22:13:08.519Z,15.95
2022-11-10T22:18:40.445Z,10.05
2022-11-10T22:24:21.133Z,7.32
2022-11-10T22:29:42.839Z,6.43
2022-11-10T22:35:04.817Z,10.90
2022-11-10T22:40:45.145Z,6.63
2022-11-10T22:46:06.782Z,5.60
2022-11-10T22:51:30.578Z,5.32
2022-11-10T22:56:52.554Z,3.80
2022-11-10T23:02:14.156Z,4.82
2022-11-10T23:07:35.845Z,4.18
2022-11-10T23:12:57.644Z,3.17
2022-11-10T23:18:19.388Z,1.80
2022-11-10T23:23:42.591Z,1.98
2022-11-10T23:29:04.248Z,1.83
2022-11-10T23:34:25.925Z,2.67
2022-11-10T23:39:47.567Z,3.53
2022-11-10T23:45:09.828Z,5.25
2022-11-10T23:50:31.522Z,3.25
2022-11-10T23:55:57.791Z,3.17
